KOLS/OLS METAR and TAF weather

Enter ICAO airport designator
Station Type Date Time Source
KOLS METAR 2022/01/29 13:54 UTC NOAA

KOLS 291354Z AUTO 00000KT 10SM CLR 00/M08 A3019 RMK AO2 SLP209 T00001083


Station Type Date Time Source
KOLS Decoded METAR 2022/01/29 13:54 UTC NOAA

NOGALES INTERNATIONAL AIRPORT , AZ, United States (KOLS) 31-25N 110-51W 1184M
Jan 29, 2022 - 08:54 AM EST / 2022.01.29 1354 UTC
Wind: Calm:0
Visibility: 10 mile(s):0
Sky conditions: clear
Temperature: 32.0 F (0.0 C)
Dew Point: 17.1 F (-8.3 C)
Relative Humidity: 53%
Pressure (altimeter): 30.19 in. Hg (1022 hPa)
ob: KOLS 291354Z AUTO 00000KT 10SM CLR 00/M08 A3019 RMK AO2 SLP209 T00001083
cycle: 14

Station Type Date Time Source
KOLS TAF 2022/01/29 12:22 UTC NOAA

TAF KOLS 291120Z 2912/3012 05007KT P6SM SCT120 SCT200
FM292000 21006KT P6SM SCT200
FM300300 10004KT P6SM BKN120

Example: see airport list